Clifton, Idaho
Current Conditions -  °F | °C
As of 12:51 AM on Saturday 25 Oct 2014 (Local Time) from KLGU Reporting Station
Clear Clear  
Wind Chill: 42°   Ceiling: Unl
Heat Index: 42°   Visibility: 10mi
Dew Point: 33°   Wind: 0mph
Humidity: 70%   Direction: NA
Pressure: 30.11"   Gusts: NA
Location:  42.19°N, 112.01°W
Report Text: KLGU 250651Z AUTO 00000KT 10SM CLR 06/01 A3011 RMK AO2 SLP172 T00560006 402390006 TSNO
Loading
Personal Weather Stations






























Interactive Weather Map New forecast layout! Learn more

10-Day Weather Forecast

Advertisements
Track Severe Weather on mobile